sensor_id;sensor_type;location;lat;lon;timestamp;temperature;humidity
21805;DHT22;11064;47.102;15.452;2024-03-08T00:00:00;2.50;99.90
21805;DHT22;11064;47.102;15.452;2024-03-08T00:02:35;2.40;99.90
21805;DHT22;11064;47.102;15.452;2024-03-08T00:05:05;2.50;99.90
21805;DHT22;11064;47.102;15.452;2024-03-08T00:07:31;2.40;99.90
21805;DHT22;11064;47.102;15.452;2024-03-08T00:09:57;2.40;99.90
21805;DHT22;11064;47.102;15.452;2024-03-08T00:12:23;2.40;99.90
21805;DHT22;11064;47.102;15.452;2024-03-08T00:14:50;2.30;99.90
21805;DHT22;11064;47.102;15.452;2024-03-08T00:17:15;2.30;99.90
21805;DHT22;11064;47.102;15.452;2024-03-08T00:19:41;2.20;99.90
21805;DHT22;11064;47.102;15.452;2024-03-08T00:22:07;2.10;99.90
21805;DHT22;11064;47.102;15.452;2024-03-08T00:24:33;2.00;99.90
21805;DHT22;11064;47.102;15.452;2024-03-08T00:26:59;2.00;99.90
21805;DHT22;11064;47.102;15.452;2024-03-08T00:29:24;2.00;99.90
21805;DHT22;11064;47.102;15.452;2024-03-08T00:31:50;2.00;99.90
21805;DHT22;11064;47.102;15.452;2024-03-08T00:34:16;1.90;99.90
21805;DHT22;11064;47.102;15.452;2024-03-08T00:36:41;2.00;99.90
21805;DHT22;11064;47.102;15.452;2024-03-08T00:39:07;1.90;99.90
21805;DHT22;11064;47.102;15.452;2024-03-08T00:41:32;1.90;99.90
21805;DHT22;11064;47.102;15.452;2024-03-08T00:43:58;1.90;99.90
21805;DHT22;11064;47.102;15.452;2024-03-08T00:46:24;1.90;99.90
21805;DHT22;11064;47.102;15.452;2024-03-08T00:48:50;1.90;99.90
21805;DHT22;11064;47.102;15.452;2024-03-08T00:51:16;2.00;99.90
21805;DHT22;11064;47.102;15.452;2024-03-08T00:53:41;2.00;99.90
21805;DHT22;11064;47.102;15.452;2024-03-08T00:56:08;1.90;99.90
21805;DHT22;11064;47.102;15.452;2024-03-08T00:58:36;1.80;99.90
21805;DHT22;11064;47.102;15.452;2024-03-08T01:01:02;1.60;99.90
21805;DHT22;11064;47.102;15.452;2024-03-08T01:03:28;1.40;99.90
21805;DHT22;11064;47.102;15.452;2024-03-08T01:05:57;1.20;99.90
21805;DHT22;11064;47.102;15.452;2024-03-08T01:08:23;1.00;99.90
21805;DHT22;11064;47.102;15.452;2024-03-08T01:10:48;0.90;99.90
21805;DHT22;11064;47.102;15.452;2024-03-08T01:13:16;0.70;99.90
21805;DHT22;11064;47.102;15.452;2024-03-08T01:15:42;0.70;99.90
21805;DHT22;11064;47.102;15.452;2024-03-08T01:18:07;0.60;99.90
21805;DHT22;11064;47.102;15.452;2024-03-08T01:20:33;0.70;99.90
21805;DHT22;11064;47.102;15.452;2024-03-08T01:22:58;0.80;99.90
21805;DHT22;11064;47.102;15.452;2024-03-08T01:25:24;0.90;99.90
21805;DHT22;11064;47.102;15.452;2024-03-08T01:27:50;0.90;99.90
21805;DHT22;11064;47.102;15.452;2024-03-08T01:30:15;1.00;99.90
21805;DHT22;11064;47.102;15.452;2024-03-08T01:32:43;1.00;99.90
21805;DHT22;11064;47.102;15.452;2024-03-08T01:35:09;0.90;99.90
21805;DHT22;11064;47.102;15.452;2024-03-08T01:37:36;0.90;99.90
21805;DHT22;11064;47.102;15.452;2024-03-08T01:40:03;0.90;99.90
21805;DHT22;11064;47.102;15.452;2024-03-08T01:42:29;0.90;99.90
21805;DHT22;11064;47.102;15.452;2024-03-08T01:44:54;0.80;99.90
21805;DHT22;11064;47.102;15.452;2024-03-08T01:47:21;0.80;99.90
21805;DHT22;11064;47.102;15.452;2024-03-08T01:49:51;0.70;99.90
21805;DHT22;11064;47.102;15.452;2024-03-08T01:52:17;0.60;99.90
21805;DHT22;11064;47.102;15.452;2024-03-08T01:54:46;0.50;99.90
21805;DHT22;11064;47.102;15.452;2024-03-08T01:57:11;0.50;99.90
21805;DHT22;11064;47.102;15.452;2024-03-08T01:59:37;0.40;99.90
21805;DHT22;11064;47.102;15.452;2024-03-08T02:02:03;0.50;99.90
21805;DHT22;11064;47.102;15.452;2024-03-08T02:04:31;0.50;99.90
21805;DHT22;11064;47.102;15.452;2024-03-08T02:06:57;0.50;99.90
21805;DHT22;11064;47.102;15.452;2024-03-08T02:09:25;0.50;99.90
21805;DHT22;11064;47.102;15.452;2024-03-08T02:11:51;0.40;99.90
21805;DHT22;11064;47.102;15.452;2024-03-08T02:14:18;0.30;99.90
21805;DHT22;11064;47.102;15.452;2024-03-08T02:16:44;0.30;99.90
21805;DHT22;11064;47.102;15.452;2024-03-08T02:19:11;0.40;99.90
21805;DHT22;11064;47.102;15.452;2024-03-08T02:21:36;0.50;99.90
21805;DHT22;11064;47.102;15.452;2024-03-08T02:24:03;0.60;99.90
21805;DHT22;11064;47.102;15.452;2024-03-08T02:26:29;0.90;99.90
21805;DHT22;11064;47.102;15.452;2024-03-08T02:28:55;1.10;99.90
21805;DHT22;11064;47.102;15.452;2024-03-08T02:31:21;1.30;99.90
21805;DHT22;11064;47.102;15.452;2024-03-08T02:33:47;1.30;99.90
21805;DHT22;11064;47.102;15.452;2024-03-08T02:36:13;1.30;99.90
21805;DHT22;11064;47.102;15.452;2024-03-08T02:38:38;1.40;99.90
21805;DHT22;11064;47.102;15.452;2024-03-08T02:41:07;1.50;99.90
21805;DHT22;11064;47.102;15.452;2024-03-08T02:43:34;1.60;99.90
21805;DHT22;11064;47.102;15.452;2024-03-08T02:45:59;1.50;99.90
21805;DHT22;11064;47.102;15.452;2024-03-08T02:48:25;1.60;99.90
21805;DHT22;11064;47.102;15.452;2024-03-08T02:50:51;1.50;99.90
21805;DHT22;11064;47.102;15.452;2024-03-08T02:53:16;1.40;99.90
21805;DHT22;11064;47.102;15.452;2024-03-08T02:55:44;1.30;99.90
21805;DHT22;11064;47.102;15.452;2024-03-08T02:58:10;1.30;99.90
21805;DHT22;11064;47.102;15.452;2024-03-08T03:00:36;1.30;99.90
21805;DHT22;11064;47.102;15.452;2024-03-08T03:03:02;1.30;99.90
21805;DHT22;11064;47.102;15.452;2024-03-08T03:05:28;1.30;99.90
21805;DHT22;11064;47.102;15.452;2024-03-08T03:07:57;1.40;99.90
21805;DHT22;11064;47.102;15.452;2024-03-08T03:10:24;1.50;99.90
21805;DHT22;11064;47.102;15.452;2024-03-08T03:12:50;1.60;99.90
21805;DHT22;11064;47.102;15.452;2024-03-08T03:15:15;1.60;99.90
21805;DHT22;11064;47.102;15.452;2024-03-08T03:17:48;1.70;99.90
21805;DHT22;11064;47.102;15.452;2024-03-08T03:20:14;1.70;99.90
21805;DHT22;11064;47.102;15.452;2024-03-08T03:22:40;1.70;99.90
21805;DHT22;11064;47.102;15.452;2024-03-08T03:25:09;1.70;99.90
21805;DHT22;11064;47.102;15.452;2024-03-08T03:27:35;1.70;99.90
21805;DHT22;11064;47.102;15.452;2024-03-08T03:30:01;1.70;99.90
21805;DHT22;11064;47.102;15.452;2024-03-08T03:32:49;1.80;99.90
21805;DHT22;11064;47.102;15.452;2024-03-08T03:35:21;1.80;99.90
21805;DHT22;11064;47.102;15.452;2024-03-08T03:37:47;1.80;99.90
21805;DHT22;11064;47.102;15.452;2024-03-08T03:40:33;1.60;99.90
21805;DHT22;11064;47.102;15.452;2024-03-08T03:42:59;1.50;99.90
21805;DHT22;11064;47.102;15.452;2024-03-08T03:45:25;1.40;99.90
21805;DHT22;11064;47.102;15.452;2024-03-08T03:47:51;1.30;99.90
21805;DHT22;11064;47.102;15.452;2024-03-08T03:50:17;1.30;99.90
21805;DHT22;11064;47.102;15.452;2024-03-08T03:52:45;1.40;99.90
21805;DHT22;11064;47.102;15.452;2024-03-08T03:55:10;1.40;99.90
21805;DHT22;11064;47.102;15.452;2024-03-08T03:57:37;1.40;99.90
21805;DHT22;11064;47.102;15.452;2024-03-08T04:00:03;1.40;99.90
21805;DHT22;11064;47.102;15.452;2024-03-08T04:02:30;1.40;99.90
21805;DHT22;11064;47.102;15.452;2024-03-08T04:04:55;1.40;99.90
21805;DHT22;11064;47.102;15.452;2024-03-08T04:07:21;1.50;99.90
21805;DHT22;11064;47.102;15.452;2024-03-08T04:09:47;1.50;99.90
21805;DHT22;11064;47.102;15.452;2024-03-08T04:12:12;1.60;99.90
21805;DHT22;11064;47.102;15.452;2024-03-08T04:14:41;1.60;99.90
21805;DHT22;11064;47.102;15.452;2024-03-08T04:17:07;1.70;99.90
21805;DHT22;11064;47.102;15.452;2024-03-08T04:19:34;1.70;99.90
21805;DHT22;11064;47.102;15.452;2024-03-08T04:22:00;1.70;99.90
21805;DHT22;11064;47.102;15.452;2024-03-08T04:24:26;1.70;99.90
21805;DHT22;11064;47.102;15.452;2024-03-08T04:26:52;1.60;99.90
21805;DHT22;11064;47.102;15.452;2024-03-08T04:29:18;1.70;99.90
21805;DHT22;11064;47.102;15.452;2024-03-08T04:31:44;1.60;99.90
21805;DHT22;11064;47.102;15.452;2024-03-08T04:34:10;1.60;99.90
21805;DHT22;11064;47.102;15.452;2024-03-08T04:36:36;1.50;99.90
21805;DHT22;11064;47.102;15.452;2024-03-08T04:39:02;1.40;99.90
21805;DHT22;11064;47.102;15.452;2024-03-08T04:41:28;1.40;99.90
21805;DHT22;11064;47.102;15.452;2024-03-08T04:43:55;1.30;99.90
21805;DHT22;11064;47.102;15.452;2024-03-08T05:03:03;1.20;99.90
21805;DHT22;11064;47.102;15.452;2024-03-08T05:05:30;1.20;99.90
21805;DHT22;11064;47.102;15.452;2024-03-08T05:07:56;1.10;99.90
21805;DHT22;11064;47.102;15.452;2024-03-08T05:10:22;1.10;99.90
21805;DHT22;11064;47.102;15.452;2024-03-08T05:12:48;1.00;99.90
21805;DHT22;11064;47.102;15.452;2024-03-08T05:15:13;0.90;99.90
21805;DHT22;11064;47.102;15.452;2024-03-08T05:17:39;0.70;99.90
21805;DHT22;11064;47.102;15.452;2024-03-08T05:20:08;0.70;99.90
21805;DHT22;11064;47.102;15.452;2024-03-08T05:22:37;0.60;99.90
21805;DHT22;11064;47.102;15.452;2024-03-08T05:25:03;0.50;99.90
21805;DHT22;11064;47.102;15.452;2024-03-08T05:27:29;0.50;99.90
21805;DHT22;11064;47.102;15.452;2024-03-08T05:29:55;0.40;99.90
21805;DHT22;11064;47.102;15.452;2024-03-08T05:32:20;0.50;99.90
21805;DHT22;11064;47.102;15.452;2024-03-08T05:34:46;0.60;99.90
21805;DHT22;11064;47.102;15.452;2024-03-08T05:37:12;0.80;99.90
21805;DHT22;11064;47.102;15.452;2024-03-08T05:39:37;1.00;99.90
21805;DHT22;11064;47.102;15.452;2024-03-08T05:42:03;1.10;99.90
21805;DHT22;11064;47.102;15.452;2024-03-08T05:44:29;1.20;99.90
21805;DHT22;11064;47.102;15.452;2024-03-08T05:46:56;1.30;99.90
21805;DHT22;11064;47.102;15.452;2024-03-08T05:49:22;1.40;99.90
21805;DHT22;11064;47.102;15.452;2024-03-08T05:51:47;1.50;99.90
21805;DHT22;11064;47.102;15.452;2024-03-08T05:54:13;1.70;99.90
21805;DHT22;11064;47.102;15.452;2024-03-08T05:56:39;1.80;99.90
21805;DHT22;11064;47.102;15.452;2024-03-08T05:59:09;2.00;99.90
21805;DHT22;11064;47.102;15.452;2024-03-08T06:01:35;2.00;99.90
21805;DHT22;11064;47.102;15.452;2024-03-08T06:04:02;2.20;99.90
21805;DHT22;11064;47.102;15.452;2024-03-08T06:06:28;2.20;99.90
21805;DHT22;11064;47.102;15.452;2024-03-08T06:08:53;2.20;99.90
21805;DHT22;11064;47.102;15.452;2024-03-08T06:11:22;2.20;99.90
21805;DHT22;11064;47.102;15.452;2024-03-08T06:13:47;2.30;99.90
21805;DHT22;11064;47.102;15.452;2024-03-08T06:16:13;2.40;99.90
21805;DHT22;11064;47.102;15.452;2024-03-08T06:18:39;2.40;99.90
21805;DHT22;11064;47.102;15.452;2024-03-08T06:21:05;2.50;99.90
21805;DHT22;11064;47.102;15.452;2024-03-08T06:23:31;2.50;99.90
21805;DHT22;11064;47.102;15.452;2024-03-08T06:25:57;2.40;99.90
21805;DHT22;11064;47.102;15.452;2024-03-08T06:28:23;2.40;99.90
21805;DHT22;11064;47.102;15.452;2024-03-08T06:30:48;2.30;99.90
21805;DHT22;11064;47.102;15.452;2024-03-08T06:33:17;2.30;99.90
21805;DHT22;11064;47.102;15.452;2024-03-08T06:35:42;2.20;99.90
21805;DHT22;11064;47.102;15.452;2024-03-08T06:38:08;2.20;99.90
21805;DHT22;11064;47.102;15.452;2024-03-08T06:40:33;2.10;99.90
21805;DHT22;11064;47.102;15.452;2024-03-08T06:42:59;2.20;99.90
21805;DHT22;11064;47.102;15.452;2024-03-08T06:45:25;2.20;99.90
21805;DHT22;11064;47.102;15.452;2024-03-08T06:47:51;2.20;99.90
21805;DHT22;11064;47.102;15.452;2024-03-08T06:50:17;2.40;99.90
21805;DHT22;11064;47.102;15.452;2024-03-08T06:52:43;2.30;99.90
21805;DHT22;11064;47.102;15.452;2024-03-08T06:55:09;2.20;99.90
21805;DHT22;11064;47.102;15.452;2024-03-08T06:57:41;2.10;99.90
21805;DHT22;11064;47.102;15.452;2024-03-08T07:00:07;2.00;99.90
21805;DHT22;11064;47.102;15.452;2024-03-08T07:02:44;1.90;99.90
21805;DHT22;11064;47.102;15.452;2024-03-08T07:05:11;1.90;99.90
21805;DHT22;11064;47.102;15.452;2024-03-08T07:07:37;2.00;99.90
21805;DHT22;11064;47.102;15.452;2024-03-08T07:10:02;2.20;99.90
21805;DHT22;11064;47.102;15.452;2024-03-08T07:12:28;2.30;99.90
21805;DHT22;11064;47.102;15.452;2024-03-08T07:14:54;2.50;99.90
21805;DHT22;11064;47.102;15.452;2024-03-08T07:17:19;2.80;99.90
21805;DHT22;11064;47.102;15.452;2024-03-08T07:19:45;3.00;99.90
21805;DHT22;11064;47.102;15.452;2024-03-08T07:22:11;3.20;99.90
21805;DHT22;11064;47.102;15.452;2024-03-08T07:24:36;3.40;99.90
21805;DHT22;11064;47.102;15.452;2024-03-08T07:27:05;3.40;99.90
21805;DHT22;11064;47.102;15.452;2024-03-08T07:29:34;3.50;99.90
21805;DHT22;11064;47.102;15.452;2024-03-08T07:32:00;3.60;99.90
21805;DHT22;11064;47.102;15.452;2024-03-08T07:34:26;3.70;99.90
21805;DHT22;11064;47.102;15.452;2024-03-08T07:36:51;3.90;99.90
21805;DHT22;11064;47.102;15.452;2024-03-08T07:39:17;4.10;99.90
21805;DHT22;11064;47.102;15.452;2024-03-08T07:41:44;4.30;99.90
21805;DHT22;11064;47.102;15.452;2024-03-08T07:44:09;4.30;99.90
21805;DHT22;11064;47.102;15.452;2024-03-08T07:46:35;4.40;99.90
21805;DHT22;11064;47.102;15.452;2024-03-08T07:49:02;4.50;99.90
21805;DHT22;11064;47.102;15.452;2024-03-08T07:51:28;4.50;99.90
21805;DHT22;11064;47.102;15.452;2024-03-08T07:53:54;4.50;99.90
21805;DHT22;11064;47.102;15.452;2024-03-08T07:56:20;4.70;99.90
21805;DHT22;11064;47.102;15.452;2024-03-08T07:58:47;4.90;99.90
21805;DHT22;11064;47.102;15.452;2024-03-08T08:01:17;5.10;99.90
21805;DHT22;11064;47.102;15.452;2024-03-08T08:03:43;5.30;99.90
21805;DHT22;11064;47.102;15.452;2024-03-08T08:06:09;5.80;99.90
21805;DHT22;11064;47.102;15.452;2024-03-08T08:08:35;6.20;99.90
21805;DHT22;11064;47.102;15.452;2024-03-08T08:11:02;6.40;99.90
21805;DHT22;11064;47.102;15.452;2024-03-08T08:13:28;6.40;99.90
21805;DHT22;11064;47.102;15.452;2024-03-08T08:15:57;6.30;99.90
21805;DHT22;11064;47.102;15.452;2024-03-08T08:18:23;6.10;99.90
21805;DHT22;11064;47.102;15.452;2024-03-08T08:20:51;6.10;99.90
21805;DHT22;11064;47.102;15.452;2024-03-08T08:23:17;6.00;99.90
21805;DHT22;11064;47.102;15.452;2024-03-08T08:25:45;6.10;99.90
21805;DHT22;11064;47.102;15.452;2024-03-08T08:28:11;6.20;99.90
21805;DHT22;11064;47.102;15.452;2024-03-08T08:30:38;6.10;99.90
21805;DHT22;11064;47.102;15.452;2024-03-08T08:33:03;5.70;99.90
21805;DHT22;11064;47.102;15.452;2024-03-08T08:35:31;6.00;99.90
21805;DHT22;11064;47.102;15.452;2024-03-08T08:37:58;6.60;99.90
21805;DHT22;11064;47.102;15.452;2024-03-08T08:40:24;6.70;99.90
21805;DHT22;11064;47.102;15.452;2024-03-08T08:42:51;6.90;99.90
21805;DHT22;11064;47.102;15.452;2024-03-08T08:45:18;6.90;99.90
21805;DHT22;11064;47.102;15.452;2024-03-08T08:47:44;6.80;99.90
21805;DHT22;11064;47.102;15.452;2024-03-08T08:50:10;6.80;99.90
21805;DHT22;11064;47.102;15.452;2024-03-08T08:52:39;6.90;99.90
21805;DHT22;11064;47.102;15.452;2024-03-08T08:55:05;7.10;99.90
21805;DHT22;11064;47.102;15.452;2024-03-08T08:57:32;6.90;99.90
21805;DHT22;11064;47.102;15.452;2024-03-08T09:00:01;6.70;99.90
21805;DHT22;11064;47.102;15.452;2024-03-08T09:02:27;6.80;99.90
21805;DHT22;11064;47.102;15.452;2024-03-08T09:04:52;7.20;99.90
21805;DHT22;11064;47.102;15.452;2024-03-08T09:07:18;7.00;99.90
21805;DHT22;11064;47.102;15.452;2024-03-08T09:09:44;6.90;99.90
21805;DHT22;11064;47.102;15.452;2024-03-08T09:12:10;6.80;99.90
21805;DHT22;11064;47.102;15.452;2024-03-08T09:14:39;7.10;99.90
21805;DHT22;11064;47.102;15.452;2024-03-08T09:17:05;7.50;99.90
21805;DHT22;11064;47.102;15.452;2024-03-08T09:19:34;7.30;99.90
21805;DHT22;11064;47.102;15.452;2024-03-08T09:21:59;7.50;99.90
21805;DHT22;11064;47.102;15.452;2024-03-08T09:24:25;7.40;99.90
21805;DHT22;11064;47.102;15.452;2024-03-08T09:26:51;7.00;99.90
21805;DHT22;11064;47.102;15.452;2024-03-08T09:29:17;6.80;99.90
21805;DHT22;11064;47.102;15.452;2024-03-08T09:31:43;6.80;99.90
21805;DHT22;11064;47.102;15.452;2024-03-08T09:34:11;7.30;99.90
21805;DHT22;11064;47.102;15.452;2024-03-08T09:36:37;7.50;99.90
21805;DHT22;11064;47.102;15.452;2024-03-08T09:39:02;8.20;99.90
21805;DHT22;11064;47.102;15.452;2024-03-08T09:41:28;7.90;99.90
21805;DHT22;11064;47.102;15.452;2024-03-08T09:43:55;8.00;99.90
21805;DHT22;11064;47.102;15.452;2024-03-08T09:46:23;8.10;99.90
21805;DHT22;11064;47.102;15.452;2024-03-08T09:48:48;8.10;99.90
21805;DHT22;11064;47.102;15.452;2024-03-08T09:51:14;8.20;99.90
21805;DHT22;11064;47.102;15.452;2024-03-08T09:53:41;8.10;99.90
21805;DHT22;11064;47.102;15.452;2024-03-08T09:56:09;7.70;99.90
21805;DHT22;11064;47.102;15.452;2024-03-08T09:58:37;7.70;99.90
21805;DHT22;11064;47.102;15.452;2024-03-08T10:01:19;7.30;99.90
21805;DHT22;11064;47.102;15.452;2024-03-08T10:03:46;7.50;99.90
21805;DHT22;11064;47.102;15.452;2024-03-08T10:06:13;7.40;99.90
21805;DHT22;11064;47.102;15.452;2024-03-08T10:08:39;7.10;99.90
21805;DHT22;11064;47.102;15.452;2024-03-08T10:11:05;7.60;99.90
21805;DHT22;11064;47.102;15.452;2024-03-08T10:13:30;7.80;99.90
21805;DHT22;11064;47.102;15.452;2024-03-08T10:15:57;7.30;99.90
21805;DHT22;11064;47.102;15.452;2024-03-08T10:18:23;7.30;99.90
21805;DHT22;11064;47.102;15.452;2024-03-08T10:21:02;7.70;99.90
21805;DHT22;11064;47.102;15.452;2024-03-08T10:23:29;8.20;99.90
21805;DHT22;11064;47.102;15.452;2024-03-08T10:25:55;8.60;97.80
21805;DHT22;11064;47.102;15.452;2024-03-08T10:28:23;8.50;97.80
21805;DHT22;11064;47.102;15.452;2024-03-08T10:30:50;9.10;97.80
21805;DHT22;11064;47.102;15.452;2024-03-08T10:33:16;9.50;96.20
21805;DHT22;11064;47.102;15.452;2024-03-08T10:35:41;9.60;95.20
21805;DHT22;11064;47.102;15.452;2024-03-08T10:38:07;9.00;93.30
21805;DHT22;11064;47.102;15.452;2024-03-08T10:40:34;8.80;93.90
21805;DHT22;11064;47.102;15.452;2024-03-08T10:43:01;9.10;92.40
21805;DHT22;11064;47.102;15.452;2024-03-08T10:45:31;9.10;90.50
21805;DHT22;11064;47.102;15.452;2024-03-08T10:50:42;7.70;93.60
21805;DHT22;11064;47.102;15.452;2024-03-08T10:53:13;7.70;95.60
21805;DHT22;11064;47.102;15.452;2024-03-08T10:55:40;7.80;93.90
21805;DHT22;11064;47.102;15.452;2024-03-08T10:58:06;7.80;94.90
21805;DHT22;11064;47.102;15.452;2024-03-08T11:00:33;8.30;94.40
21805;DHT22;11064;47.102;15.452;2024-03-08T11:02:59;8.90;93.70
21805;DHT22;11064;47.102;15.452;2024-03-08T11:08:01;9.10;92.60
21805;DHT22;11064;47.102;15.452;2024-03-08T11:10:27;9.40;92.10
21805;DHT22;11064;47.102;15.452;2024-03-08T11:12:53;9.70;91.10
21805;DHT22;11064;47.102;15.452;2024-03-08T11:15:19;9.50;91.20
21805;DHT22;11064;47.102;15.452;2024-03-08T11:17:45;9.60;91.10
21805;DHT22;11064;47.102;15.452;2024-03-08T11:20:12;9.50;91.00
21805;DHT22;11064;47.102;15.452;2024-03-08T11:22:42;9.20;91.40
21805;DHT22;11064;47.102;15.452;2024-03-08T11:25:29;9.20;91.40
21805;DHT22;11064;47.102;15.452;2024-03-08T11:30:33;8.70;93.10
21805;DHT22;11064;47.102;15.452;2024-03-08T11:33:00;9.00;92.60
21805;DHT22;11064;47.102;15.452;2024-03-08T11:35:27;8.80;91.00
21805;DHT22;11064;47.102;15.452;2024-03-08T11:37:52;8.70;92.20
21805;DHT22;11064;47.102;15.452;2024-03-08T11:40:19;8.40;91.70
21805;DHT22;11064;47.102;15.452;2024-03-08T11:42:45;8.50;91.60
21805;DHT22;11064;47.102;15.452;2024-03-08T11:45:14;8.80;92.20
21805;DHT22;11064;47.102;15.452;2024-03-08T11:47:44;8.50;91.30
21805;DHT22;11064;47.102;15.452;2024-03-08T11:50:13;8.60;92.10
21805;DHT22;11064;47.102;15.452;2024-03-08T11:52:39;8.90;91.60
21805;DHT22;11064;47.102;15.452;2024-03-08T11:55:05;9.70;90.90
21805;DHT22;11064;47.102;15.452;2024-03-08T11:57:31;10.00;89.60
21805;DHT22;11064;47.102;15.452;2024-03-08T11:59:57;9.90;86.80
21805;DHT22;11064;47.102;15.452;2024-03-08T12:02:27;9.80;87.40
21805;DHT22;11064;47.102;15.452;2024-03-08T12:04:59;9.20;88.70
21805;DHT22;11064;47.102;15.452;2024-03-08T12:07:26;9.00;88.50
21805;DHT22;11064;47.102;15.452;2024-03-08T12:12:43;9.00;90.00
21805;DHT22;11064;47.102;15.452;2024-03-08T12:15:09;9.10;87.70
21805;DHT22;11064;47.102;15.452;2024-03-08T12:17:37;8.90;88.90
21805;DHT22;11064;47.102;15.452;2024-03-08T12:20:18;9.10;90.00
21805;DHT22;11064;47.102;15.452;2024-03-08T12:22:44;8.90;88.50
21805;DHT22;11064;47.102;15.452;2024-03-08T12:25:13;8.60;89.90
21805;DHT22;11064;47.102;15.452;2024-03-08T12:27:39;9.00;90.60
21805;DHT22;11064;47.102;15.452;2024-03-08T12:30:15;9.00;90.60
21805;DHT22;11064;47.102;15.452;2024-03-08T12:32:46;8.80;89.20
21805;DHT22;11064;47.102;15.452;2024-03-08T12:35:12;8.80;89.70
21805;DHT22;11064;47.102;15.452;2024-03-08T12:37:39;9.00;90.40
21805;DHT22;11064;47.102;15.452;2024-03-08T12:40:07;9.10;90.00
21805;DHT22;11064;47.102;15.452;2024-03-08T12:42:33;8.80;90.80
21805;DHT22;11064;47.102;15.452;2024-03-08T12:45:00;8.80;90.50
21805;DHT22;11064;47.102;15.452;2024-03-08T12:47:26;8.60;90.80
21805;DHT22;11064;47.102;15.452;2024-03-08T12:49:55;8.60;90.70
21805;DHT22;11064;47.102;15.452;2024-03-08T12:52:20;8.80;90.80
21805;DHT22;11064;47.102;15.452;2024-03-08T12:54:46;8.50;90.20
21805;DHT22;11064;47.102;15.452;2024-03-08T12:57:12;8.30;90.50
21805;DHT22;11064;47.102;15.452;2024-03-08T12:59:39;8.40;91.30
21805;DHT22;11064;47.102;15.452;2024-03-08T13:02:04;8.80;90.80
21805;DHT22;11064;47.102;15.452;2024-03-08T13:04:32;9.20;91.00
21805;DHT22;11064;47.102;15.452;2024-03-08T13:06:57;9.70;90.50
21805;DHT22;11064;47.102;15.452;2024-03-08T13:09:23;9.30;90.80
21805;DHT22;11064;47.102;15.452;2024-03-08T13:11:52;9.60;90.60
21805;DHT22;11064;47.102;15.452;2024-03-08T13:14:21;9.40;90.20
21805;DHT22;11064;47.102;15.452;2024-03-08T13:16:47;8.90;90.30
21805;DHT22;11064;47.102;15.452;2024-03-08T13:19:13;8.80;90.70
21805;DHT22;11064;47.102;15.452;2024-03-08T13:21:39;8.40;91.10
21805;DHT22;11064;47.102;15.452;2024-03-08T13:24:05;8.30;92.20
21805;DHT22;11064;47.102;15.452;2024-03-08T13:26:30;8.10;92.50
21805;DHT22;11064;47.102;15.452;2024-03-08T13:28:59;7.70;93.40
21805;DHT22;11064;47.102;15.452;2024-03-08T13:31:25;7.70;93.70
21805;DHT22;11064;47.102;15.452;2024-03-08T13:33:50;7.50;93.80
21805;DHT22;11064;47.102;15.452;2024-03-08T13:36:23;7.40;94.50
21805;DHT22;11064;47.102;15.452;2024-03-08T13:38:54;7.40;95.30
21805;DHT22;11064;47.102;15.452;2024-03-08T13:41:20;7.30;95.20
21805;DHT22;11064;47.102;15.452;2024-03-08T13:43:48;7.40;95.90
21805;DHT22;11064;47.102;15.452;2024-03-08T13:46:16;7.60;96.30
21805;DHT22;11064;47.102;15.452;2024-03-08T13:48:42;7.70;95.40
21805;DHT22;11064;47.102;15.452;2024-03-08T13:51:08;7.50;95.60
21805;DHT22;11064;47.102;15.452;2024-03-08T13:53:37;7.60;95.70
21805;DHT22;11064;47.102;15.452;2024-03-08T13:56:03;7.60;95.60
21805;DHT22;11064;47.102;15.452;2024-03-08T13:58:29;7.40;95.20
21805;DHT22;11064;47.102;15.452;2024-03-08T14:00:54;7.30;96.00
21805;DHT22;11064;47.102;15.452;2024-03-08T14:03:21;7.50;96.50
21805;DHT22;11064;47.102;15.452;2024-03-08T14:05:47;7.60;96.20
21805;DHT22;11064;47.102;15.452;2024-03-08T14:08:12;7.50;95.70
21805;DHT22;11064;47.102;15.452;2024-03-08T14:10:39;7.60;96.00
21805;DHT22;11064;47.102;15.452;2024-03-08T14:13:05;7.60;96.30
21805;DHT22;11064;47.102;15.452;2024-03-08T14:15:32;7.50;95.00
21805;DHT22;11064;47.102;15.452;2024-03-08T14:17:58;7.40;96.10
21805;DHT22;11064;47.102;15.452;2024-03-08T14:20:23;7.50;96.80
21805;DHT22;11064;47.102;15.452;2024-03-08T14:22:55;7.60;96.50
21805;DHT22;11064;47.102;15.452;2024-03-08T14:25:23;7.60;97.30
21805;DHT22;11064;47.102;15.452;2024-03-08T14:27:50;7.50;97.00
21805;DHT22;11064;47.102;15.452;2024-03-08T14:30:19;7.60;97.40
21805;DHT22;11064;47.102;15.452;2024-03-08T14:33:04;8.10;96.90
21805;DHT22;11064;47.102;15.452;2024-03-08T14:35:31;8.40;95.50
21805;DHT22;11064;47.102;15.452;2024-03-08T14:37:57;8.20;95.30
21805;DHT22;11064;47.102;15.452;2024-03-08T14:40:23;8.30;95.70
21805;DHT22;11064;47.102;15.452;2024-03-08T14:42:49;8.10;95.60
21805;DHT22;11064;47.102;15.452;2024-03-08T14:45:15;7.80;96.30
21805;DHT22;11064;47.102;15.452;2024-03-08T14:47:47;7.50;96.70
21805;DHT22;11064;47.102;15.452;2024-03-08T14:50:19;7.60;97.80
21805;DHT22;11064;47.102;15.452;2024-03-08T14:52:45;7.50;97.90
21805;DHT22;11064;47.102;15.452;2024-03-08T14:55:14;7.30;98.10
21805;DHT22;11064;47.102;15.452;2024-03-08T14:57:40;7.40;98.50
21805;DHT22;11064;47.102;15.452;2024-03-08T15:00:06;7.30;98.90
21805;DHT22;11064;47.102;15.452;2024-03-08T15:02:41;7.30;99.40
21805;DHT22;11064;47.102;15.452;2024-03-08T15:05:07;7.20;99.90
21805;DHT22;11064;47.102;15.452;2024-03-08T15:07:46;7.40;99.90
21805;DHT22;11064;47.102;15.452;2024-03-08T15:10:12;7.60;99.30
21805;DHT22;11064;47.102;15.452;2024-03-08T15:12:41;7.60;99.80
21805;DHT22;11064;47.102;15.452;2024-03-08T15:15:09;7.60;98.70
21805;DHT22;11064;47.102;15.452;2024-03-08T15:17:35;7.40;99.40
21805;DHT22;11064;47.102;15.452;2024-03-08T15:20:02;7.00;99.90
21805;DHT22;11064;47.102;15.452;2024-03-08T15:22:28;6.80;99.90
21805;DHT22;11064;47.102;15.452;2024-03-08T15:24:54;6.50;99.90
21805;DHT22;11064;47.102;15.452;2024-03-08T15:27:19;6.30;99.90
21805;DHT22;11064;47.102;15.452;2024-03-08T15:29:45;6.30;99.90
21805;DHT22;11064;47.102;15.452;2024-03-08T15:32:14;6.20;99.90
21805;DHT22;11064;47.102;15.452;2024-03-08T15:34:45;6.10;99.90
21805;DHT22;11064;47.102;15.452;2024-03-08T15:37:11;6.00;99.90
21805;DHT22;11064;47.102;15.452;2024-03-08T15:39:42;6.00;99.90
21805;DHT22;11064;47.102;15.452;2024-03-08T15:42:08;6.00;99.90
21805;DHT22;11064;47.102;15.452;2024-03-08T15:44:37;6.00;99.90
21805;DHT22;11064;47.102;15.452;2024-03-08T15:47:04;6.00;99.90
21805;DHT22;11064;47.102;15.452;2024-03-08T15:49:32;5.90;99.90
21805;DHT22;11064;47.102;15.452;2024-03-08T15:51:58;6.00;99.90
21805;DHT22;11064;47.102;15.452;2024-03-08T15:54:24;5.90;99.90